Time;durP1;ratioP1;P1;durP2;ratioP2;P2;SDS_P1;SDS_P2;PMS_P1;PMS_P2;Temp;Humidity;BMP_temperature;BMP_pressure;BME280_temperature;BME280_humidity;BME280_pressure;Samples;Min_cycle;Max_cycle;Signal;HPM_P1;HPM_P2
2021/09/15 00:00:53;;;;;;;8.53;4.90;;;;;;;16.41;100.00;100153.48;1765839;79;20889;-72
2021/09/15 00:03:20;;;;;;;5.70;4.10;;;;;;;16.37;100.00;100155.48;1764354;79;21135;-69
2021/09/15 00:05:48;;;;;;;6.43;4.00;;;;;;;16.28;100.00;100154.45;1756728;80;21028;-73
2021/09/15 00:08:15;;;;;;;7.30;4.60;;;;;;;16.35;100.00;100154.88;1758072;80;21431;-71
2021/09/15 00:10:43;;;;;;;8.43;4.00;;;;;;;16.32;100.00;100154.01;1757725;80;21024;-71
2021/09/15 00:13:09;;;;;;;10.27;4.67;;;;;;;16.27;100.00;100154.16;1755567;80;21526;-71
2021/09/15 00:15:37;;;;;;;6.83;4.47;;;;;;;16.27;100.00;100158.11;1734512;80;20988;-71
2021/09/15 00:18:05;;;;;;;6.50;4.43;;;;;;;16.28;100.00;100153.13;1756450;80;20980;-71
2021/09/15 00:20:33;;;;;;;6.80;4.13;;;;;;;16.32;100.00;100150.86;1756907;80;20961;-72
2021/09/15 00:23:00;;;;;;;7.70;4.67;;;;;;;16.27;100.00;100151.53;1757864;79;21538;-71
2021/09/15 00:25:26;;;;;;;6.70;4.30;;;;;;;16.18;100.00;100156.03;1758578;80;21097;-71
2021/09/15 00:27:53;;;;;;;8.47;4.07;;;;;;;16.14;100.00;100152.20;1756608;80;21097;-73
2021/09/15 00:30:20;;;;;;;8.17;4.30;;;;;;;16.10;100.00;100161.08;1757115;80;21174;-72
2021/09/15 00:32:46;;;;;;;9.07;4.60;;;;;;;16.05;100.00;100162.23;1758483;80;21092;-72
2021/09/15 00:35:13;;;;;;;8.67;4.63;;;;;;;16.01;100.00;100159.77;1757014;80;21147;-71
2021/09/15 00:37:41;;;;;;;9.93;4.70;;;;;;;16.00;100.00;100158.16;1757252;80;20973;-72
2021/09/15 00:40:10;;;;;;;7.30;4.53;;;;;;;15.96;100.00;100163.57;1757092;80;21136;-72
2021/09/15 00:42:36;;;;;;;9.00;5.03;;;;;;;15.93;100.00;100169.27;1756248;80;21514;-71
2021/09/15 00:45:06;;;;;;;7.57;5.10;;;;;;;15.90;100.00;100165.76;1757063;80;21483;-72
2021/09/15 00:47:33;;;;;;;7.20;4.50;;;;;;;15.78;100.00;100174.38;1757475;80;21010;-73
2021/09/15 00:50:00;;;;;;;9.30;5.07;;;;;;;15.76;100.00;100179.06;1756801;80;21522;-71
2021/09/15 00:52:28;;;;;;;7.07;4.43;;;;;;;15.70;100.00;100175.98;1757891;80;21136;-71
2021/09/15 00:54:55;;;;;;;7.40;4.50;;;;;;;15.45;100.00;100177.30;1756787;80;20945;-72
2021/09/15 00:57:23;;;;;;;7.23;4.60;;;;;;;15.35;100.00;100186.72;1757115;80;22200;-70
2021/09/15 00:59:51;;;;;;;7.53;4.17;;;;;;;15.48;100.00;100182.64;1757092;80;20906;-71
2021/09/15 01:02:19;;;;;;;7.57;4.70;;;;;;;15.36;100.00;100189.11;1757055;80;21569;-71
2021/09/15 01:04:46;;;;;;;5.70;3.73;;;;;;;15.48;100.00;100189.20;1770501;80;21162;-71
2021/09/15 01:07:16;;;;;;;7.80;4.20;;;;;;;15.54;100.00;100187.84;1775552;80;21572;-71
2021/09/15 01:09:44;;;;;;;8.77;4.17;;;;;;;15.49;100.00;100185.55;1774995;80;21418;-71
2021/09/15 01:12:13;;;;;;;9.17;4.20;;;;;;;15.58;100.00;100189.52;1777936;79;21782;-72
2021/09/15 01:14:43;;;;;;;6.70;4.03;;;;;;;15.55;100.00;100196.52;1769665;80;21442;-72
2021/09/15 01:17:21;;;;;;;8.60;4.30;;;;;;;15.60;100.00;100188.78;1773046;80;21147;-73
2021/09/15 01:20:08;;;;;;;10.03;4.10;;;;;;;15.39;100.00;100195.25;1774460;80;20932;-71
2021/09/15 01:22:52;;;;;;;6.13;4.20;;;;;;;15.53;100.00;100195.44;1777355;80;20968;-71
2021/09/15 01:25:37;;;;;;;6.30;3.80;;;;;;;15.40;100.00;100186.86;1777824;80;20997;-72
2021/09/15 01:28:22;;;;;;;10.50;4.00;;;;;;;15.43;100.00;100198.25;1776867;79;21704;-72
2021/09/15 01:30:54;;;;;;;6.43;3.77;;;;;;;15.43;100.00;100198.25;1777108;79;21070;-72
2021/09/15 01:33:24;;;;;;;6.90;3.90;;;;;;;15.40;100.00;100191.60;1775399;80;22322;-71
2021/09/15 01:35:50;;;;;;;5.57;3.70;;;;;;;15.38;100.00;100195.45;1777460;80;21739;-72
2021/09/15 01:38:17;;;;;;;6.33;4.20;;;;;;;15.27;100.00;100201.73;1778937;80;21773;-72
2021/09/15 01:40:45;;;;;;;9.60;4.73;;;;;;;15.21;100.00;100203.88;1779240;80;21603;-73
2021/09/15 01:43:11;;;;;;;6.77;4.17;;;;;;;14.90;100.00;100207.35;1776595;79;21762;-72
2021/09/15 01:45:40;;;;;;;5.80;3.93;;;;;;;14.94;100.00;100201.97;1778640;80;22986;-72
2021/09/15 01:48:09;;;;;;;6.83;4.07;;;;;;;15.08;100.00;100204.00;1776204;80;22642;-73
2021/09/15 01:50:36;;;;;;;8.10;5.00;;;;;;;14.88;100.00;100214.62;1778587;80;21778;-71
2021/09/15 01:53:03;;;;;;;8.77;3.93;;;;;;;14.92;100.00;100220.25;1778720;80;22246;-72
2021/09/15 01:55:31;;;;;;;7.60;4.43;;;;;;;14.92;100.00;100212.38;1778395;80;21748;-72
2021/09/15 01:58:18;;;;;;;10.63;4.70;;;;;;;14.86;100.00;100211.93;1779177;80;23073;-73
2021/09/15 02:01:04;;;;;;;6.60;3.90;;;;;;;14.76;100.00;100213.19;1779646;80;21656;-72
2021/09/15 02:03:49;;;;;;;7.13;4.13;;;;;;;14.88;100.00;100216.45;1751738;80;21689;-72
2021/09/15 02:06:21;;;;;;;7.27;4.10;;;;;;;14.82;100.00;100216.28;1755094;80;21600;-71
2021/09/15 02:08:51;;;;;;;7.27;4.13;;;;;;;14.87;100.00;100216.16;1756945;80;21490;-72
2021/09/15 02:11:20;;;;;;;7.47;4.33;;;;;;;14.87;100.00;100216.16;1745064;80;21441;-72
2021/09/15 02:13:48;;;;;;;8.50;4.53;;;;;;;14.71;100.00;100218.27;1756934;80;22022;-72
2021/09/15 02:16:15;;;;;;;7.53;4.50;;;;;;;14.87;100.00;100217.47;1757019;80;22173;-71
2021/09/15 02:18:43;;;;;;;9.60;4.40;;;;;;;14.69;100.00;100218.97;1757746;80;22249;-71
2021/09/15 02:21:17;;;;;;;8.07;4.47;;;;;;;14.58;100.00;100219.64;1747669;80;21616;-71
2021/09/15 02:24:02;;;;;;;7.57;3.70;;;;;;;14.29;100.00;100209.97;1757247;80;22122;-70
2021/09/15 02:26:33;;;;;;;8.05;4.30;;;;;;;14.35;100.00;100211.75;1753292;80;21663;-71
2021/09/15 02:29:01;;;;;;;8.70;4.47;;;;;;;14.44;100.00;100208.40;1756357;80;21040;-70
2021/09/15 02:31:31;;;;;;;9.37;5.80;;;;;;;14.44;100.00;100208.40;1756171;80;21505;-70
2021/09/15 02:34:00;;;;;;;10.47;7.30;;;;;;;14.44;100.00;100218.89;1753118;80;21667;-70
2021/09/15 02:36:28;;;;;;;15.10;8.27;;;;;;;14.44;100.00;100218.89;1756918;80;21458;-70
2021/09/15 02:39:01;;;;;;;9.80;6.93;;;;;;;14.41;100.00;100217.19;1756114;80;21516;-70
2021/09/15 02:41:47;;;;;;;11.20;7.50;;;;;;;14.19;100.00;100229.27;1755967;80;21632;-72
2021/09/15 02:44:20;;;;;;;14.37;7.50;;;;;;;14.03;100.00;100238.39;1753924;80;21757;-72
2021/09/15 02:46:48;;;;;;;12.17;6.53;;;;;;;13.83;100.00;100241.06;1754470;80;22103;-70
2021/09/15 02:49:33;;;;;;;9.27;4.70;;;;;;;13.83;100.00;100241.06;1757019;80;21898;-71
2021/09/15 02:52:18;;;;;;;8.57;4.97;;;;;;;13.82;100.00;100248.60;1755800;79;21408;-71
2021/09/15 02:54:46;;;;;;;9.77;4.60;;;;;;;13.82;100.00;100249.91;1756318;80;21473;-72
2021/09/15 02:57:14;;;;;;;10.40;4.97;;;;;;;13.82;100.00;100249.91;1756526;80;21931;-71
2021/09/15 02:59:43;;;;;;;8.23;4.40;;;;;;;13.88;100.00;100256.17;1756377;80;22371;-71
2021/09/15 03:02:29;;;;;;;9.93;4.03;;;;;;;13.94;100.00;100262.39;1750879;79;21947;-71
2021/09/15 03:05:10;;;;;;;13.73;4.50;;;;;;;14.08;100.00;100261.36;1739932;80;21153;-71
2021/09/15 03:07:57;;;;;;;8.03;4.63;;;;;;;14.00;100.00;100252.41;1782439;80;21481;-72
2021/09/15 03:10:23;;;;;;;6.93;4.17;;;;;;;14.14;100.00;100274.16;1785980;78;22196;-72
2021/09/15 03:12:51;;;;;;;6.80;3.57;;;;;;;14.24;100.00;100276.62;1773020;79;21276;-72
2021/09/15 03:15:18;;;;;;;5.93;3.43;;;;;;;14.09;100.00;100273.45;1717414;80;21464;-71
2021/09/15 03:17:46;;;;;;;6.67;3.27;;;;;;;14.09;100.00;100273.45;1716757;82;21298;-71
2021/09/15 03:20:14;;;;;;;5.60;3.20;;;;;;;14.33;100.00;100272.78;1750474;81;21493;-71
2021/09/15 03:22:40;;;;;;;7.60;3.10;;;;;;;14.70;100.00;100267.00;1721942;81;22009;-70
2021/09/15 03:25:09;;;;;;;6.13;3.07;;;;;;;15.06;100.00;100263.78;1717224;82;21406;-70
2021/09/15 03:27:38;;;;;;;6.30;3.30;;;;;;;14.63;100.00;100264.44;1724944;81;21649;-73
2021/09/15 03:30:06;;;;;;;6.23;2.93;;;;;;;14.91;100.00;100271.14;1715137;81;22002;-72
2021/09/15 03:32:33;;;;;;;6.67;3.27;;;;;;;15.36;100.00;100269.22;1721595;82;22159;-72
2021/09/15 03:35:00;;;;;;;8.87;3.07;;;;;;;15.92;100.00;100270.19;1720086;81;21733;-72
2021/09/15 03:37:27;;;;;;;6.00;2.77;;;;;;;16.45;100.00;100271.72;1779632;78;21458;-72
2021/09/15 03:39:54;;;;;;;5.63;3.10;;;;;;;16.82;100.00;100269.06;1788265;79;20943;-71
2021/09/15 03:42:22;;;;;;;4.77;2.90;;;;;;;17.26;100.00;100276.20;1761986;80;21106;-70
2021/09/15 03:44:51;;;;;;;5.67;3.37;;;;;;;17.87;100.00;100276.84;1717307;80;21067;-76
2021/09/15 03:47:17;;;;;;;7.63;3.33;;;;;;;18.49;100.00;100279.73;1777630;78;21544;-67
2021/09/15 03:49:44;;;;;;;5.03;2.90;;;;;;;19.08;100.00;100278.98;1785071;79;22621;-70
2021/09/15 03:52:12;;;;;;;13.77;3.77;;;;;;;19.61;100.00;100280.34;1770533;79;21020;-66
2021/09/15 03:54:39;;;;;;;6.97;3.20;;;;;;;20.26;100.00;100279.39;1716567;81;20984;-68
2021/09/15 03:57:08;;;;;;;7.80;3.70;;;;;;;20.83;93.87;100278.99;1716567;80;20994;-68
2021/09/15 03:59:36;;;;;;;13.60;5.03;;;;;;;21.48;82.33;100288.62;1751521;81;21045;-67
2021/09/15 04:02:06;;;;;;;13.20;5.60;;;;;;;22.15;76.01;100296.98;1734805;79;21114;-68
2021/09/15 04:04:34;;;;;;;17.33;6.83;;;;;;;22.81;69.34;100292.70;1723502;81;21507;-71
2021/09/15 04:07:01;;;;;;;11.60;7.60;;;;;;;23.65;61.39;100295.14;1727390;82;21022;-71
2021/09/15 04:09:28;;;;;;;15.00;8.83;;;;;;;24.40;56.12;100300.02;1724503;81;22138;-70
2021/09/15 04:11:54;;;;;;;12.37;8.90;;;;;;;25.13;51.93;100293.99;1726670;81;21465;-70
2021/09/15 04:14:25;;;;;;;15.00;8.30;;;;;;;25.90;47.52;100303.44;1702269;82;21218;-66
2021/09/15 04:16:55;;;;;;;11.67;6.93;;;;;;;26.56;44.09;100310.45;1758445;79;21054;-70
2021/09/15 04:19:22;;;;;;;11.40;6.75;;;;;;;26.97;41.93;100304.48;1758095;79;20970;-70
2021/09/15 04:21:51;;;;;;;9.25;6.08;;;;;;;27.30;40.82;100302.66;1755195;80;21600;-69
2021/09/15 04:31:10;;;;;;;8.00;4.72;;;;;;;27.65;39.78;100315.96;1758302;79;20929;-68
2021/09/15 04:32:34;;;;;;;7.50;3.90;;;;;;;28.84;35.87;100318.14;1765003;79;20987;-67
2021/09/15 04:35:01;;;;;;;8.03;3.33;;;;;;;29.17;34.66;100313.92;1766349;80;21010;-68
2021/09/15 04:37:28;;;;;;;6.12;3.67;;;;;;;29.45;33.77;100309.73;1769929;79;20921;-67
2021/09/15 04:39:55;;;;;;;6.40;3.35;;;;;;;29.66;33.56;100316.17;1769786;79;21093;-67
2021/09/15 04:42:21;;;;;;;5.62;3.70;;;;;;;29.95;32.29;100308.16;1769460;79;20998;-66
2021/09/15 04:44:49;;;;;;;5.15;2.77;;;;;;;30.14;31.96;100310.02;1770375;80;20923;-65
2021/09/15 04:47:16;;;;;;;5.10;3.20;;;;;;;30.56;31.17;100314.47;1771472;79;21442;-66
2021/09/15 04:49:43;;;;;;;7.15;3.33;;;;;;;30.41;30.15;100317.06;1767311;79;21577;-68
2021/09/15 04:52:10;;;;;;;6.33;3.10;;;;;;;30.09;29.96;100319.59;1768862;79;22291;-67
2021/09/15 04:54:37;;;;;;;5.53;3.20;;;;;;;30.32;29.82;100319.52;1770289;79;22429;-65
2021/09/15 04:57:05;;;;;;;6.15;2.85;;;;;;;30.30;28.89;100315.77;1766122;79;20972;-64
2021/09/15 04:59:31;;;;;;;4.80;3.05;;;;;;;30.15;28.82;100316.98;1769514;80;21505;-66
2021/09/15 05:01:58;;;;;;;8.75;3.00;;;;;;;30.38;27.97;100315.55;1767832;80;21012;-68
2021/09/15 05:04:25;;;;;;;4.00;2.30;;;;;;;30.36;27.98;100321.26;1768829;79;21142;-65
2021/09/15 05:06:55;;;;;;;6.45;2.55;;;;;;;30.42;27.61;100320.54;1765225;80;21497;-66
2021/09/15 05:09:21;;;;;;;3.25;2.35;;;;;;;30.29;26.93;100324.41;1765286;79;20988;-65
2021/09/15 05:11:49;;;;;;;3.58;2.42;;;;;;;29.39;27.20;100327.06;1767062;80;21023;-67
2021/09/15 05:14:17;;;;;;;4.67;2.25;;;;;;;28.19;28.52;100329.19;1767514;79;21257;-64
2021/09/15 05:16:44;;;;;;;6.15;2.75;;;;;;;26.22;30.49;100342.11;1769293;79;22021;-63
2021/09/15 05:19:10;;;;;;;4.10;2.33;;;;;;;24.87;32.61;100344.01;1768909;79;20940;-65
2021/09/15 05:21:38;;;;;;;7.33;2.75;;;;;;;24.50;34.18;100345.80;1765146;79;20944;-65
2021/09/15 05:24:05;;;;;;;6.22;2.37;;;;;;;24.34;34.69;100345.03;1767827;79;20984;-68
2021/09/15 05:26:32;;;;;;;5.05;2.60;;;;;;;24.03;34.42;100354.45;1765468;79;22553;-65
2021/09/15 05:28:59;;;;;;;4.53;2.00;;;;;;;23.54;34.24;100347.56;1766167;80;21153;-63
2021/09/15 05:31:28;;;;;;;6.77;2.47;;;;;;;23.18;34.53;100348.06;1763426;79;21067;-65
2021/09/15 05:33:54;;;;;;;4.97;2.47;;;;;;;22.63;35.46;100338.89;1738159;80;20987;-67
2021/09/15 05:36:21;;;;;;;5.37;2.10;;;;;;;22.54;35.97;100347.88;1758093;80;21002;-67
2021/09/15 05:38:48;;;;;;;4.97;1.90;;;;;;;21.68;36.24;100346.84;1756873;80;21110;-66
2021/09/15 05:41:17;;;;;;;6.67;2.63;;;;;;;21.60;36.35;100344.93;1763966;79;21067;-63
2021/09/15 05:43:44;;;;;;;6.13;2.77;;;;;;;21.57;36.28;100348.61;1766696;80;21061;-68
2021/09/15 05:46:13;;;;;;;7.27;3.13;;;;;;;21.34;36.14;100361.16;1770427;79;21466;-67
2021/09/15 05:48:42;;;;;;;12.50;5.53;;;;;;;21.12;36.77;100361.17;1760629;79;21082;-64
2021/09/15 05:51:08;;;;;;;6.97;3.43;;;;;;;20.88;36.45;100364.65;1764308;79;21099;-65
2021/09/15 05:53:37;;;;;;;5.13;2.53;;;;;;;20.74;36.89;100366.59;1766609;79;22230;-67
2021/09/15 05:56:05;;;;;;;11.80;4.37;;;;;;;20.65;37.54;100361.73;1770353;79;20968;-69
2021/09/15 05:58:32;;;;;;;8.53;2.90;;;;;;;20.78;38.12;100367.70;1757780;80;21123;-63
2021/09/15 06:00:59;;;;;;;6.10;2.30;;;;;;;21.06;38.00;100360.87;1766761;79;21572;-65
2021/09/15 06:03:27;;;;;;;4.90;2.30;;;;;;;21.28;37.66;100363.97;1767281;79;21494;-65
2021/09/15 06:06:02;;;;;;;4.10;1.60;;;;;;;21.59;37.55;100360.59;1759625;80;21959;-66
2021/09/15 06:08:28;;;;;;;8.90;2.00;;;;;;;21.90;36.98;100363.99;1767179;80;21075;-63
2021/09/15 06:10:57;;;;;;;7.17;1.73;;;;;;;22.33;36.11;100365.05;1761130;79;20988;-66
2021/09/15 06:13:25;;;;;;;3.87;1.70;;;;;;;22.18;36.25;100360.20;1765317;79;21070;-66
2021/09/15 06:15:52;;;;;;;2.07;1.20;;;;;;;22.55;34.75;100359.58;1766626;80;20980;-68
2021/09/15 06:18:19;;;;;;;2.70;1.50;;;;;;;22.98;33.58;100358.14;1762595;79;21622;-68
2021/09/15 06:21:01;;;;;;;4.15;1.62;;;;;;;23.49;32.57;100356.35;1693945;80;21506;-67
2021/09/15 06:23:38;;;;;;;2.33;1.70;;;;;;;23.91;30.90;100353.95;1712105;81;21016;-69
2021/09/15 06:26:06;;;;;;;5.73;1.53;;;;;;;24.37;31.07;100355.15;1763803;79;21118;-67
2021/09/15 06:28:33;;;;;;;3.27;1.80;;;;;;;25.14;29.44;100354.80;1766639;79;21102;-68
2021/09/15 06:31:00;;;;;;;3.60;1.87;;;;;;;26.06;28.42;100355.36;1769229;80;21044;-68
2021/09/15 06:33:27;;;;;;;2.42;1.52;;;;;;;26.77;27.13;100357.20;1765873;80;21144;-70
2021/09/15 06:35:54;;;;;;;5.25;2.20;;;;;;;27.53;26.49;100353.13;1760634;79;20901;-67
2021/09/15 06:38:21;;;;;;;3.45;1.82;;;;;;;28.29;25.18;100353.08;1765590;79;21070;-65
2021/09/15 06:40:48;;;;;;;3.80;1.98;;;;;;;28.73;23.68;100355.69;1761833;79;21114;-66
2021/09/15 06:43:14;;;;;;;2.80;1.70;;;;;;;29.29;23.06;100357.11;1760494;79;21144;-66
2021/09/15 06:45:41;;;;;;;3.33;2.10;;;;;;;29.80;22.38;100355.83;1757610;79;20994;-69
2021/09/15 06:48:08;;;;;;;3.45;1.85;;;;;;;30.04;22.02;100349.28;1763573;79;21165;-69
2021/09/15 06:50:34;;;;;;;5.40;1.77;;;;;;;30.38;21.95;100351.30;1761895;79;21126;-67
2021/09/15 06:53:02;;;;;;;2.75;1.72;;;;;;;30.80;21.94;100356.30;1762135;79;21039;-67
2021/09/15 06:55:32;;;;;;;11.97;2.25;;;;;;;31.28;21.04;100353.97;1762532;79;20995;-68
2021/09/15 06:58:01;;;;;;;8.40;1.75;;;;;;;31.65;20.80;100357.32;1756304;79;22448;-66
2021/09/15 07:00:28;;;;;;;5.20;2.02;;;;;;;32.00;20.14;100351.81;1757246;79;21103;-66
2021/09/15 07:02:55;;;;;;;5.67;1.90;;;;;;;32.19;19.52;100349.49;1764261;79;21059;-66
2021/09/15 07:05:21;;;;;;;4.55;1.85;;;;;;;32.18;19.53;100357.92;1761323;79;21028;-69
2021/09/15 07:07:48;;;;;;;6.90;2.10;;;;;;;32.35;19.39;100354.32;1757273;80;22526;-66
2021/09/15 07:10:18;;;;;;;4.58;1.90;;;;;;;32.36;19.09;100354.58;1759138;80;21126;-66
2021/09/15 07:12:44;;;;;;;3.12;1.70;;;;;;;31.65;19.54;100360.02;1760309;79;21189;-66
2021/09/15 07:15:11;;;;;;;4.28;1.62;;;;;;;31.76;19.25;100354.28;1769181;79;21028;-67
2021/09/15 07:17:39;;;;;;;2.83;1.60;;;;;;;32.04;18.83;100354.09;1762553;80;21043;-69
2021/09/15 07:20:08;;;;;;;3.20;1.80;;;;;;;32.34;18.58;100350.05;1769343;79;21130;-67
2021/09/15 07:22:35;;;;;;;5.37;1.67;;;;;;;32.50;18.42;100342.98;1762576;79;21043;-65
2021/09/15 07:25:02;;;;;;;3.42;2.05;;;;;;;32.55;18.21;100346.85;1765313;80;20940;-66
2021/09/15 07:27:29;;;;;;;3.20;2.10;;;;;;;32.44;18.24;100347.01;1768711;79;21588;-69
2021/09/15 07:29:56;;;;;;;5.80;2.22;;;;;;;32.54;18.48;100345.81;1767195;79;22372;-66
2021/09/15 07:32:23;;;;;;;3.12;1.70;;;;;;;32.77;18.00;100346.27;1769194;79;22086;-66
2021/09/15 07:34:50;;;;;;;3.72;1.82;;;;;;;32.92;17.90;100337.56;1769111;79;20975;-66
2021/09/15 07:37:17;;;;;;;2.90;2.08;;;;;;;32.92;17.49;100337.56;1759729;80;20952;-69
2021/09/15 07:39:44;;;;;;;5.67;2.08;;;;;;;33.11;17.06;100343.32;1766661;80;21077;-69
2021/09/15 07:42:10;;;;;;;5.70;1.50;;;;;;;32.87;17.35;100339.91;1768117;80;20972;-65
2021/09/15 07:44:37;;;;;;;4.12;1.92;;;;;;;32.97;17.25;100334.71;1766194;79;21359;-66
2021/09/15 07:47:04;;;;;;;6.37;2.02;;;;;;;33.02;17.54;100336.41;1761108;79;20999;-67
2021/09/15 07:49:32;;;;;;;4.42;1.70;;;;;;;33.11;17.42;100335.22;1759634;79;20948;-68
2021/09/15 07:51:58;;;;;;;3.10;1.82;;;;;;;33.17;16.58;100335.78;1759858;79;21369;-69
2021/09/15 07:54:25;;;;;;;4.62;2.20;;;;;;;33.08;16.86;100335.87;1766275;79;20987;-67
2021/09/15 07:56:52;;;;;;;6.90;5.97;;;;;;;32.98;16.94;100330.88;1770325;79;21135;-64
2021/09/15 07:59:18;;;;;;;10.10;8.10;;;;;;;33.16;16.83;100336.34;1770998;79;20880;-69
2021/09/15 08:01:45;;;;;;;5.70;3.02;;;;;;;33.26;16.61;100337.03;1768463;79;21038;-67
2021/09/15 08:04:12;;;;;;;5.35;2.00;;;;;;;33.24;16.58;100340.09;1769911;80;21149;-66
2021/09/15 08:06:38;;;;;;;7.60;3.52;;;;;;;32.95;16.59;100334.23;1771546;80;21093;-65
2021/09/15 08:09:05;;;;;;;3.65;1.90;;;;;;;32.56;16.41;100329.53;1727777;81;21206;-67
2021/09/15 08:11:32;;;;;;;4.58;1.80;;;;;;;32.40;16.27;100337.99;1769164;80;21884;-70
2021/09/15 08:13:58;;;;;;;4.55;1.70;;;;;;;32.11;16.34;100336.06;1739799;80;20983;-66
2021/09/15 08:16:25;;;;;;;3.33;1.67;;;;;;;32.14;16.43;100334.86;1769829;80;21026;-68
2021/09/15 08:18:52;;;;;;;5.78;2.08;;;;;;;32.05;16.69;100324.69;1773267;79;20900;-65
2021/09/15 08:21:19;;;;;;;6.30;2.00;;;;;;;32.19;16.85;100313.64;1744229;80;21102;-65
2021/09/15 08:23:46;;;;;;;3.00;1.77;;;;;;;32.23;16.56;100327.48;1769873;79;21505;-68
2021/09/15 08:26:12;;;;;;;2.77;2.02;;;;;;;31.99;16.13;100317.89;1763086;79;21377;-66
2021/09/15 08:28:39;;;;;;;5.15;1.90;;;;;;;32.04;16.48;100323.09;1769112;79;21003;-66
2021/09/15 08:31:07;;;;;;;3.83;2.20;;;;;;;32.05;16.70;100326.03;1774334;79;20948;-66
2021/09/15 08:33:33;;;;;;;3.43;2.00;;;;;;;32.18;16.86;100328.25;1741514;80;21145;-66
2021/09/15 08:36:00;;;;;;;7.40;2.22;;;;;;;32.21;16.20;100323.56;1767787;79;21357;-65
2021/09/15 08:38:26;;;;;;;4.05;1.80;;;;;;;32.30;16.47;100322.15;1765327;80;22002;-65
2021/09/15 08:40:56;;;;;;;4.37;1.77;;;;;;;32.31;16.59;100315.63;1767479;79;21110;-67
2021/09/15 08:43:22;;;;;;;4.58;2.02;;;;;;;32.30;16.72;100311.36;1756711;78;20900;-67
2021/09/15 08:45:50;;;;;;;4.17;1.77;;;;;;;32.29;16.87;100317.88;1762710;78;21491;-67
2021/09/15 08:48:21;;;;;;;5.58;2.00;;;;;;;32.22;17.12;100321.09;1765350;79;20936;-66
2021/09/15 08:50:49;;;;;;;6.65;1.85;;;;;;;32.33;17.11;100311.50;1763253;79;21496;-66
2021/09/15 08:53:17;;;;;;;9.27;2.63;;;;;;;32.37;17.36;100321.08;1764457;79;21059;-69
2021/09/15 08:55:46;;;;;;;2.72;1.87;;;;;;;31.99;17.49;100320.58;1766149;79;21068;-66
2021/09/15 08:58:16;;;;;;;3.75;2.20;;;;;;;31.88;17.36;100316.67;1766335;79;21131;-67
2021/09/15 09:00:43;;;;;;;4.00;1.98;;;;;;;31.77;17.60;100318.13;1763507;79;28035;-66
2021/09/15 09:03:10;;;;;;;3.27;1.70;;;;;;;32.03;17.33;100312.64;1752811;79;20911;-67
2021/09/15 09:05:38;;;;;;;3.20;1.77;;;;;;;32.06;17.34;100319.52;1683939;83;20943;-69
2021/09/15 09:08:23;;;;;;;4.28;1.87;;;;;;;31.75;17.65;100325.20;1772039;80;20904;-67
2021/09/15 09:10:52;;;;;;;7.28;2.35;;;;;;;31.75;17.65;100325.20;1766228;79;21130;-66
2021/09/15 09:13:19;;;;;;;2.83;1.57;;;;;;;31.63;18.17;100320.48;1769276;80;20987;-66
2021/09/15 09:15:49;;;;;;;6.97;1.70;;;;;;;31.54;17.57;100314.33;1727664;80;20998;-67
2021/09/15 09:18:18;;;;;;;2.75;1.80;;;;;;;31.59;17.71;100318.17;1684371;83;22390;-65
2021/09/15 09:20:44;;;;;;;5.30;2.08;;;;;;;31.74;16.83;100319.55;1732704;80;20900;-64
2021/09/15 09:23:16;;;;;;;3.85;2.05;;;;;;;31.56;16.83;100320.19;1712625;83;21669;-69
2021/09/15 09:25:48;;;;;;;10.63;2.08;;;;;;;31.42;17.38;100324.98;1726476;82;20986;-65
2021/09/15 09:28:25;;;;;;;6.42;1.70;;;;;;;31.36;17.81;100314.14;1691124;82;20960;-66
2021/09/15 09:30:54;;;;;;;5.83;2.17;;;;;;;31.41;18.09;100312.64;1707334;82;21033;-66
2021/09/15 09:33:21;;;;;;;3.92;1.80;;;;;;;31.38;18.29;100320.01;1694544;82;21023;-65
2021/09/15 09:35:58;;;;;;;3.58;1.80;;;;;;;31.26;18.47;100320.08;1720061;81;21135;-69
2021/09/15 09:38:38;;;;;;;4.10;1.50;;;;;;;31.10;18.50;100321.67;1769185;79;21758;-66
2021/09/15 09:41:12;;;;;;;5.22;1.50;;;;;;;31.23;17.99;100313.98;1770194;79;20916;-67
2021/09/15 09:43:42;;;;;;;3.12;1.57;;;;;;;31.19;17.90;100326.51;1773884;80;21048;-66
2021/09/15 09:46:11;;;;;;;5.12;2.00;;;;;;;30.84;18.37;100318.22;1772235;80;21415;-67
2021/09/15 09:48:54;;;;;;;3.25;1.50;;;;;;;30.34;18.87;100318.63;1774983;79;21116;-67
2021/09/15 09:51:29;;;;;;;3.83;1.50;;;;;;;29.94;19.06;100320.02;1775484;79;20928;-65
2021/09/15 09:54:21;;;;;;;2.67;1.50;;;;;;;29.81;19.02;100313.62;1777609;80;20955;-66
2021/09/15 09:56:49;;;;;;;6.17;1.55;;;;;;;29.89;19.08;100310.73;1776272;79;20963;-66
2021/09/15 09:59:16;;;;;;;4.45;1.90;;;;;;;30.16;18.66;100305.70;1774553;80;21460;-66
2021/09/15 10:01:53;;;;;;;3.72;1.50;;;;;;;30.44;18.84;100308.92;1776029;79;21037;-67
2021/09/15 10:04:19;;;;;;;4.42;1.40;;;;;;;30.53;18.79;100313.75;1777379;80;21494;-66
2021/09/15 10:06:46;;;;;;;2.45;1.32;;;;;;;30.19;18.76;100297.02;1755099;80;21150;-67
2021/09/15 10:09:13;;;;;;;2.47;1.22;;;;;;;30.05;19.02;100295.23;1779980;78;21121;-66
2021/09/15 10:11:41;;;;;;;3.02;1.40;;;;;;;30.01;18.99;100293.48;1776932;78;21640;-66
2021/09/15 10:14:11;;;;;;;3.62;1.45;;;;;;;30.02;18.85;100295.05;1778133;78;21163;-66
2021/09/15 10:16:52;;;;;;;3.02;1.20;;;;;;;29.89;19.39;100293.27;1757655;80;21492;-66
2021/09/15 10:19:31;;;;;;;4.22;1.70;;;;;;;29.88;19.31;100290.34;1780170;80;21090;-66
2021/09/15 10:21:59;;;;;;;4.28;1.40;;;;;;;30.02;19.13;100289.68;1780254;78;20979;-66
2021/09/15 10:24:51;;;;;;;4.00;1.50;;;;;;;29.92;19.54;100293.44;1778396;79;22051;-68
2021/09/15 10:27:20;;;;;;;4.67;1.50;;;;;;;29.96;19.45;100286.33;1779230;80;21099;-66
2021/09/15 10:30:09;;;;;;;3.40;1.72;;;;;;;30.04;19.65;100292.83;1782085;78;20893;-68
2021/09/15 10:32:47;;;;;;;8.63;1.72;;;;;;;29.91;19.18;100287.83;1778351;78;21015;-67
2021/09/15 10:35:14;;;;;;;32.80;4.05;;;;;;;29.77;18.78;100293.30;1780523;78;21434;-66
2021/09/15 10:37:47;;;;;;;4.30;1.30;;;;;;;29.57;19.25;100281.74;1779534;80;21469;-66
2021/09/15 10:40:13;;;;;;;5.17;1.52;;;;;;;29.51;19.35;100282.45;1783313;78;20904;-68
2021/09/15 10:42:47;;;;;;;6.25;1.60;;;;;;;29.55;19.57;100290.12;1776721;80;20939;-65
2021/09/15 10:45:31;;;;;;;4.87;1.20;;;;;;;29.61;19.46;100287.33;1780432;78;21078;-66
2021/09/15 10:48:04;;;;;;;4.25;1.57;;;;;;;29.64;19.79;100292.88;1777472;80;21015;-69
2021/09/15 10:50:42;;;;;;;3.33;1.70;;;;;;;29.57;19.57;100290.63;1777802;78;21121;-66
2021/09/15 10:53:13;;;;;;;4.25;1.70;;;;;;;29.42;19.62;100286.97;1779894;80;20884;-66
2021/09/15 10:55:57;;;;;;;3.27;1.65;;;;;;;29.01;20.16;100290.66;1775544;80;21043;-68
2021/09/15 10:58:31;;;;;;;2.02;1.22;;;;;;;29.16;20.42;100285.47;1781768;78;21047;-67
2021/09/15 11:01:04;;;;;;;3.95;1.40;;;;;;;29.21;20.23;100280.52;1777740;78;20959;-67
2021/09/15 11:03:35;;;;;;;2.77;1.40;;;;;;;29.04;20.20;100279.33;1779575;80;21027;-66
2021/09/15 11:06:13;;;;;;;3.72;1.52;;;;;;;28.94;20.06;100282.22;1780282;78;22089;-67
2021/09/15 11:08:43;;;;;;;2.63;1.13;;;;;;;28.80;20.15;100275.58;1778628;80;20995;-67
2021/09/15 11:11:21;;;;;;;3.65;1.02;;;;;;;28.82;20.31;100272.59;1775489;79;21070;-67
2021/09/15 11:13:58;;;;;;;4.95;1.20;;;;;;;28.95;20.23;100269.06;1780496;80;20982;-68
2021/09/15 11:16:38;;;;;;;9.90;1.60;;;;;;;29.18;20.04;100262.37;1778063;80;20975;-67
2021/09/15 11:19:14;;;;;;;5.42;1.62;;;;;;;29.25;20.29;100272.13;1782313;78;21046;-65
2021/09/15 11:21:52;;;;;;;2.40;0.90;;;;;;;29.32;20.21;100271.92;1778925;78;20924;-66
2021/09/15 11:24:24;;;;;;;7.40;1.30;;;;;;;29.12;19.74;100273.77;1779371;78;21071;-66
2021/09/15 11:27:02;;;;;;;3.12;1.10;;;;;;;29.05;19.90;100269.38;1775417;79;20986;-64
2021/09/15 11:29:44;;;;;;;3.93;1.20;;;;;;;29.07;19.95;100270.66;1778439;78;21548;-68
2021/09/15 11:32:16;;;;;;;4.72;1.75;;;;;;;29.22;19.47;100265.47;1779909;80;21132;-65
2021/09/15 11:34:50;;;;;;;3.37;1.20;;;;;;;29.24;19.70;100265.94;1778088;78;20936;-66
2021/09/15 11:37:29;;;;;;;3.20;1.20;;;;;;;29.24;19.73;100260.56;1778947;78;21000;-67
2021/09/15 11:39:58;;;;;;;5.75;1.55;;;;;;;29.19;20.35;100264.73;1780865;78;20991;-66